sensor_id;sensor_type;location;lat;lon;timestamp;temperature;humidity
6948;DHT22;3513;47.664;9.162;2023-04-03T00:01:28;6.50;98.20
6948;DHT22;3513;47.664;9.162;2023-04-03T00:03:54;6.40;97.40
6948;DHT22;3513;47.664;9.162;2023-04-03T00:06:21;6.10;97.60
6948;DHT22;3513;47.664;9.162;2023-04-03T00:08:48;6.10;97.80
6948;DHT22;3513;47.664;9.162;2023-04-03T00:11:13;6.10;98.60
6948;DHT22;3513;47.664;9.162;2023-04-03T00:13:41;6.10;98.40
6948;DHT22;3513;47.664;9.162;2023-04-03T00:16:07;6.00;98.20
6948;DHT22;3513;47.664;9.162;2023-04-03T00:18:33;6.00;98.30
6948;DHT22;3513;47.664;9.162;2023-04-03T00:20:59;6.00;98.10
6948;DHT22;3513;47.664;9.162;2023-04-03T00:23:28;6.10;98.30
6948;DHT22;3513;47.664;9.162;2023-04-03T00:25:53;6.00;98.30
6948;DHT22;3513;47.664;9.162;2023-04-03T00:28:19;6.00;98.40
6948;DHT22;3513;47.664;9.162;2023-04-03T00:30:45;6.10;98.20
6948;DHT22;3513;47.664;9.162;2023-04-03T00:33:14;6.10;98.10
6948;DHT22;3513;47.664;9.162;2023-04-03T00:35:40;6.10;98.20
6948;DHT22;3513;47.664;9.162;2023-04-03T00:38:06;6.00;98.30
6948;DHT22;3513;47.664;9.162;2023-04-03T00:40:38;5.90;98.20
6948;DHT22;3513;47.664;9.162;2023-04-03T00:43:13;6.00;98.40
6948;DHT22;3513;47.664;9.162;2023-04-03T00:45:42;6.00;98.60
6948;DHT22;3513;47.664;9.162;2023-04-03T00:48:11;5.90;98.40
6948;DHT22;3513;47.664;9.162;2023-04-03T00:50:40;5.90;98.60
6948;DHT22;3513;47.664;9.162;2023-04-03T00:53:08;5.80;98.50
6948;DHT22;3513;47.664;9.162;2023-04-03T00:55:35;5.80;98.80
6948;DHT22;3513;47.664;9.162;2023-04-03T00:58:02;5.80;99.10
6948;DHT22;3513;47.664;9.162;2023-04-03T01:00:28;5.80;99.30
6948;DHT22;3513;47.664;9.162;2023-04-03T01:02:54;5.70;99.50
6948;DHT22;3513;47.664;9.162;2023-04-03T01:05:20;5.70;99.70
6948;DHT22;3513;47.664;9.162;2023-04-03T01:07:48;6.00;99.90
6948;DHT22;3513;47.664;9.162;2023-04-03T01:10:16;5.70;99.90
6948;DHT22;3513;47.664;9.162;2023-04-03T01:12:44;5.80;99.90
6948;DHT22;3513;47.664;9.162;2023-04-03T01:15:20;5.60;99.90
6948;DHT22;3513;47.664;9.162;2023-04-03T01:17:49;5.60;99.90
6948;DHT22;3513;47.664;9.162;2023-04-03T01:25:41;5.50;99.90
6948;DHT22;3513;47.664;9.162;2023-04-03T01:28:10;5.50;99.90
6948;DHT22;3513;47.664;9.162;2023-04-03T01:30:51;5.50;99.90
6948;DHT22;3513;47.664;9.162;2023-04-03T01:33:18;5.40;99.90
6948;DHT22;3513;47.664;9.162;2023-04-03T01:35:44;5.40;99.90
6948;DHT22;3513;47.664;9.162;2023-04-03T01:38:10;5.40;99.90
6948;DHT22;3513;47.664;9.162;2023-04-03T01:40:36;5.40;99.60
6948;DHT22;3513;47.664;9.162;2023-04-03T01:43:02;5.40;99.10
6948;DHT22;3513;47.664;9.162;2023-04-03T01:45:28;5.40;98.90
6948;DHT22;3513;47.664;9.162;2023-04-03T01:47:54;5.40;98.80
6948;DHT22;3513;47.664;9.162;2023-04-03T01:50:20;5.40;98.70
6948;DHT22;3513;47.664;9.162;2023-04-03T01:52:45;5.40;98.70
6948;DHT22;3513;47.664;9.162;2023-04-03T01:55:11;5.40;98.60
6948;DHT22;3513;47.664;9.162;2023-04-03T01:57:37;5.40;98.20
6948;DHT22;3513;47.664;9.162;2023-04-03T02:00:03;5.40;98.30
6948;DHT22;3513;47.664;9.162;2023-04-03T02:02:29;5.40;98.10
6948;DHT22;3513;47.664;9.162;2023-04-03T02:04:55;5.50;96.50
6948;DHT22;3513;47.664;9.162;2023-04-03T02:07:20;5.70;95.90
6948;DHT22;3513;47.664;9.162;2023-04-03T02:09:46;5.40;95.40
6948;DHT22;3513;47.664;9.162;2023-04-03T02:12:12;5.50;95.10
6948;DHT22;3513;47.664;9.162;2023-04-03T02:14:37;5.30;94.60
6948;DHT22;3513;47.664;9.162;2023-04-03T02:17:03;5.30;94.80
6948;DHT22;3513;47.664;9.162;2023-04-03T02:19:34;5.30;95.10
6948;DHT22;3513;47.664;9.162;2023-04-03T02:22:02;5.30;94.70
6948;DHT22;3513;47.664;9.162;2023-04-03T02:24:28;5.20;94.20
6948;DHT22;3513;47.664;9.162;2023-04-03T02:26:54;5.20;94.70
6948;DHT22;3513;47.664;9.162;2023-04-03T02:29:20;5.10;94.50
6948;DHT22;3513;47.664;9.162;2023-04-03T02:31:46;5.10;95.10
6948;DHT22;3513;47.664;9.162;2023-04-03T02:34:11;5.40;95.10
6948;DHT22;3513;47.664;9.162;2023-04-03T02:36:37;5.00;95.20
6948;DHT22;3513;47.664;9.162;2023-04-03T02:39:03;5.00;95.10
6948;DHT22;3513;47.664;9.162;2023-04-03T02:41:29;4.90;95.10
6948;DHT22;3513;47.664;9.162;2023-04-03T02:44:03;5.00;95.40
6948;DHT22;3513;47.664;9.162;2023-04-03T02:46:29;4.90;94.60
6948;DHT22;3513;47.664;9.162;2023-04-03T02:48:55;4.80;94.20
6948;DHT22;3513;47.664;9.162;2023-04-03T02:51:21;4.80;94.30
6948;DHT22;3513;47.664;9.162;2023-04-03T02:53:46;4.80;94.30
6948;DHT22;3513;47.664;9.162;2023-04-03T02:56:12;4.80;94.40
6948;DHT22;3513;47.664;9.162;2023-04-03T02:58:37;4.80;94.30
6948;DHT22;3513;47.664;9.162;2023-04-03T03:01:04;4.80;94.20
6948;DHT22;3513;47.664;9.162;2023-04-03T03:03:30;4.80;94.30
6948;DHT22;3513;47.664;9.162;2023-04-03T03:06:07;4.80;94.20
6948;DHT22;3513;47.664;9.162;2023-04-03T03:08:33;4.70;93.40
6948;DHT22;3513;47.664;9.162;2023-04-03T03:10:59;4.60;93.10
6948;DHT22;3513;47.664;9.162;2023-04-03T03:13:25;4.60;93.20
6948;DHT22;3513;47.664;9.162;2023-04-03T03:15:51;4.50;93.10
6948;DHT22;3513;47.664;9.162;2023-04-03T03:18:16;4.50;93.00
6948;DHT22;3513;47.664;9.162;2023-04-03T03:20:42;4.50;92.80
6948;DHT22;3513;47.664;9.162;2023-04-03T03:23:08;4.50;93.00
6948;DHT22;3513;47.664;9.162;2023-04-03T03:25:38;4.50;93.00
6948;DHT22;3513;47.664;9.162;2023-04-03T03:28:04;4.50;92.90
6948;DHT22;3513;47.664;9.162;2023-04-03T03:30:30;4.50;92.50
6948;DHT22;3513;47.664;9.162;2023-04-03T03:32:55;4.60;92.10
6948;DHT22;3513;47.664;9.162;2023-04-03T03:35:21;4.70;91.30
6948;DHT22;3513;47.664;9.162;2023-04-03T03:37:47;4.70;90.90
6948;DHT22;3513;47.664;9.162;2023-04-03T03:40:13;4.70;90.10
6948;DHT22;3513;47.664;9.162;2023-04-03T03:42:39;4.60;89.70
6948;DHT22;3513;47.664;9.162;2023-04-03T03:45:05;4.60;90.40
6948;DHT22;3513;47.664;9.162;2023-04-03T03:47:31;4.50;90.10
6948;DHT22;3513;47.664;9.162;2023-04-03T03:49:56;4.40;90.30
6948;DHT22;3513;47.664;9.162;2023-04-03T03:52:22;4.50;90.40
6948;DHT22;3513;47.664;9.162;2023-04-03T03:54:48;4.50;90.20
6948;DHT22;3513;47.664;9.162;2023-04-03T03:57:13;4.50;90.20
6948;DHT22;3513;47.664;9.162;2023-04-03T03:59:40;4.50;89.70
6948;DHT22;3513;47.664;9.162;2023-04-03T04:02:07;4.40;89.90
6948;DHT22;3513;47.664;9.162;2023-04-03T04:04:33;4.40;88.10
6948;DHT22;3513;47.664;9.162;2023-04-03T04:06:59;4.40;87.70
6948;DHT22;3513;47.664;9.162;2023-04-03T04:09:26;4.30;87.80
6948;DHT22;3513;47.664;9.162;2023-04-03T04:11:52;4.30;86.90
6948;DHT22;3513;47.664;9.162;2023-04-03T04:14:18;4.30;86.40
6948;DHT22;3513;47.664;9.162;2023-04-03T04:16:46;4.20;85.90
6948;DHT22;3513;47.664;9.162;2023-04-03T04:19:12;4.20;85.60
6948;DHT22;3513;47.664;9.162;2023-04-03T04:21:38;4.80;86.70
6948;DHT22;3513;47.664;9.162;2023-04-03T04:24:05;4.20;84.40
6948;DHT22;3513;47.664;9.162;2023-04-03T04:26:30;4.30;84.20
6948;DHT22;3513;47.664;9.162;2023-04-03T04:28:56;4.30;84.40
6948;DHT22;3513;47.664;9.162;2023-04-03T04:31:22;4.30;82.80
6948;DHT22;3513;47.664;9.162;2023-04-03T04:33:47;4.30;83.10
6948;DHT22;3513;47.664;9.162;2023-04-03T04:36:13;4.10;82.10
6948;DHT22;3513;47.664;9.162;2023-04-03T04:38:40;4.30;82.80
6948;DHT22;3513;47.664;9.162;2023-04-03T04:41:06;4.20;83.10
6948;DHT22;3513;47.664;9.162;2023-04-03T04:43:31;4.20;84.10
6948;DHT22;3513;47.664;9.162;2023-04-03T04:46:09;4.10;83.60
6948;DHT22;3513;47.664;9.162;2023-04-03T04:48:38;4.10;83.70
6948;DHT22;3513;47.664;9.162;2023-04-03T04:51:04;4.10;84.40
6948;DHT22;3513;47.664;9.162;2023-04-03T04:53:30;4.20;84.10
6948;DHT22;3513;47.664;9.162;2023-04-03T04:55:55;4.30;84.40
6948;DHT22;3513;47.664;9.162;2023-04-03T04:58:21;4.30;84.10
6948;DHT22;3513;47.664;9.162;2023-04-03T05:00:47;4.20;84.70
6948;DHT22;3513;47.664;9.162;2023-04-03T05:03:13;4.20;84.70
6948;DHT22;3513;47.664;9.162;2023-04-03T05:05:38;4.20;84.10
6948;DHT22;3513;47.664;9.162;2023-04-03T05:08:05;4.10;85.40
6948;DHT22;3513;47.664;9.162;2023-04-03T05:10:31;4.20;86.60
6948;DHT22;3513;47.664;9.162;2023-04-03T05:12:57;4.20;85.10
6948;DHT22;3513;47.664;9.162;2023-04-03T05:15:23;4.20;85.80
6948;DHT22;3513;47.664;9.162;2023-04-03T05:17:48;4.10;85.30
6948;DHT22;3513;47.664;9.162;2023-04-03T05:20:14;4.10;85.00
6948;DHT22;3513;47.664;9.162;2023-04-03T05:22:40;4.10;84.90
6948;DHT22;3513;47.664;9.162;2023-04-03T05:25:06;4.10;85.00
6948;DHT22;3513;47.664;9.162;2023-04-03T05:27:32;4.10;85.60
6948;DHT22;3513;47.664;9.162;2023-04-03T05:29:58;4.10;85.20
6948;DHT22;3513;47.664;9.162;2023-04-03T05:32:24;4.20;86.30
6948;DHT22;3513;47.664;9.162;2023-04-03T05:34:52;4.20;84.20
6948;DHT22;3513;47.664;9.162;2023-04-03T05:37:17;4.20;84.60
6948;DHT22;3513;47.664;9.162;2023-04-03T05:39:43;4.20;83.40
6948;DHT22;3513;47.664;9.162;2023-04-03T05:42:09;4.10;82.10
6948;DHT22;3513;47.664;9.162;2023-04-03T05:44:34;4.10;82.80
6948;DHT22;3513;47.664;9.162;2023-04-03T05:47:00;4.10;83.60
6948;DHT22;3513;47.664;9.162;2023-04-03T05:49:26;4.10;82.60
6948;DHT22;3513;47.664;9.162;2023-04-03T05:51:51;4.10;83.60
6948;DHT22;3513;47.664;9.162;2023-04-03T05:54:23;4.10;81.70
6948;DHT22;3513;47.664;9.162;2023-04-03T05:56:50;4.00;81.50
6948;DHT22;3513;47.664;9.162;2023-04-03T05:59:17;4.00;82.20
6948;DHT22;3513;47.664;9.162;2023-04-03T06:01:43;4.10;83.20
6948;DHT22;3513;47.664;9.162;2023-04-03T06:04:08;4.10;84.50
6948;DHT22;3513;47.664;9.162;2023-04-03T06:09:13;4.30;84.00
6948;DHT22;3513;47.664;9.162;2023-04-03T06:11:39;4.30;82.70
6948;DHT22;3513;47.664;9.162;2023-04-03T06:14:04;4.30;81.60
6948;DHT22;3513;47.664;9.162;2023-04-03T06:16:30;4.30;80.60
6948;DHT22;3513;47.664;9.162;2023-04-03T06:18:55;4.30;82.20
6948;DHT22;3513;47.664;9.162;2023-04-03T06:21:22;4.30;80.90
6948;DHT22;3513;47.664;9.162;2023-04-03T06:23:47;4.30;81.60
6948;DHT22;3513;47.664;9.162;2023-04-03T06:26:13;4.30;81.90
6948;DHT22;3513;47.664;9.162;2023-04-03T06:28:38;4.40;82.90
6948;DHT22;3513;47.664;9.162;2023-04-03T06:31:04;4.40;82.70
6948;DHT22;3513;47.664;9.162;2023-04-03T06:33:30;4.50;82.90
6948;DHT22;3513;47.664;9.162;2023-04-03T06:35:57;4.50;85.10
6948;DHT22;3513;47.664;9.162;2023-04-03T06:38:23;4.50;84.90
6948;DHT22;3513;47.664;9.162;2023-04-03T06:40:49;4.60;84.30
6948;DHT22;3513;47.664;9.162;2023-04-03T06:43:14;4.70;84.10
6948;DHT22;3513;47.664;9.162;2023-04-03T06:45:40;4.70;83.10
6948;DHT22;3513;47.664;9.162;2023-04-03T06:48:06;4.70;82.60
6948;DHT22;3513;47.664;9.162;2023-04-03T06:50:31;4.80;82.60
6948;DHT22;3513;47.664;9.162;2023-04-03T06:52:57;4.80;83.20
6948;DHT22;3513;47.664;9.162;2023-04-03T06:55:22;4.90;82.80
6948;DHT22;3513;47.664;9.162;2023-04-03T06:57:48;4.90;81.20
6948;DHT22;3513;47.664;9.162;2023-04-03T07:00:14;4.90;81.50
6948;DHT22;3513;47.664;9.162;2023-04-03T07:02:40;5.00;81.80
6948;DHT22;3513;47.664;9.162;2023-04-03T07:05:06;5.00;81.90
6948;DHT22;3513;47.664;9.162;2023-04-03T07:07:32;5.00;80.20
6948;DHT22;3513;47.664;9.162;2023-04-03T07:09:59;5.60;81.40
6948;DHT22;3513;47.664;9.162;2023-04-03T07:12:25;5.10;81.30
6948;DHT22;3513;47.664;9.162;2023-04-03T07:14:51;5.10;81.00
6948;DHT22;3513;47.664;9.162;2023-04-03T07:17:17;5.10;80.50
6948;DHT22;3513;47.664;9.162;2023-04-03T07:19:42;5.20;81.00
6948;DHT22;3513;47.664;9.162;2023-04-03T07:22:08;5.20;80.70
6948;DHT22;3513;47.664;9.162;2023-04-03T07:24:34;5.20;81.60
6948;DHT22;3513;47.664;9.162;2023-04-03T07:27:00;5.30;81.90
6948;DHT22;3513;47.664;9.162;2023-04-03T07:29:26;5.30;81.00
6948;DHT22;3513;47.664;9.162;2023-04-03T07:31:52;5.40;80.90
6948;DHT22;3513;47.664;9.162;2023-04-03T07:34:18;5.50;80.50
6948;DHT22;3513;47.664;9.162;2023-04-03T07:36:43;5.60;81.30
6948;DHT22;3513;47.664;9.162;2023-04-03T07:39:09;5.60;81.10
6948;DHT22;3513;47.664;9.162;2023-04-03T07:41:36;5.70;80.90
6948;DHT22;3513;47.664;9.162;2023-04-03T07:44:02;5.70;80.40
6948;DHT22;3513;47.664;9.162;2023-04-03T07:46:28;5.70;80.40
6948;DHT22;3513;47.664;9.162;2023-04-03T07:48:53;5.80;80.10
6948;DHT22;3513;47.664;9.162;2023-04-03T07:51:19;5.90;80.00
6948;DHT22;3513;47.664;9.162;2023-04-03T07:53:45;5.90;79.70
6948;DHT22;3513;47.664;9.162;2023-04-03T07:56:11;6.00;79.60
6948;DHT22;3513;47.664;9.162;2023-04-03T07:58:36;6.10;79.50
6948;DHT22;3513;47.664;9.162;2023-04-03T08:01:02;6.10;79.80
6948;DHT22;3513;47.664;9.162;2023-04-03T08:03:28;6.10;79.70
6948;DHT22;3513;47.664;9.162;2023-04-03T08:05:54;6.10;79.50
6948;DHT22;3513;47.664;9.162;2023-04-03T08:08:21;6.10;78.60
6948;DHT22;3513;47.664;9.162;2023-04-03T08:10:51;6.10;79.60
6948;DHT22;3513;47.664;9.162;2023-04-03T08:13:18;6.10;79.50
6948;DHT22;3513;47.664;9.162;2023-04-03T08:15:44;6.20;80.20
6948;DHT22;3513;47.664;9.162;2023-04-03T08:18:09;6.40;80.40
6948;DHT22;3513;47.664;9.162;2023-04-03T08:20:35;6.40;78.70
6948;DHT22;3513;47.664;9.162;2023-04-03T08:23:02;6.40;79.50
6948;DHT22;3513;47.664;9.162;2023-04-03T08:25:28;6.40;79.80
6948;DHT22;3513;47.664;9.162;2023-04-03T08:27:54;6.50;79.60
6948;DHT22;3513;47.664;9.162;2023-04-03T08:30:20;6.50;79.80
6948;DHT22;3513;47.664;9.162;2023-04-03T08:32:46;6.60;79.70
6948;DHT22;3513;47.664;9.162;2023-04-03T08:35:12;6.60;79.80
6948;DHT22;3513;47.664;9.162;2023-04-03T08:37:38;6.70;80.40
6948;DHT22;3513;47.664;9.162;2023-04-03T08:40:11;6.80;80.10
6948;DHT22;3513;47.664;9.162;2023-04-03T08:42:49;6.90;79.40
6948;DHT22;3513;47.664;9.162;2023-04-03T08:45:27;7.00;79.60
6948;DHT22;3513;47.664;9.162;2023-04-03T08:48:05;7.10;79.40
6948;DHT22;3513;47.664;9.162;2023-04-03T08:50:41;7.20;79.10
6948;DHT22;3513;47.664;9.162;2023-04-03T08:53:15;7.20;78.60
6948;DHT22;3513;47.664;9.162;2023-04-03T08:55:49;7.20;79.00
6948;DHT22;3513;47.664;9.162;2023-04-03T08:58:16;7.30;79.20
6948;DHT22;3513;47.664;9.162;2023-04-03T09:03:21;7.30;79.10
6948;DHT22;3513;47.664;9.162;2023-04-03T09:05:53;7.30;78.90
6948;DHT22;3513;47.664;9.162;2023-04-03T09:08:30;7.30;78.80
6948;DHT22;3513;47.664;9.162;2023-04-03T09:16:25;7.20;79.20
6948;DHT22;3513;47.664;9.162;2023-04-03T09:19:20;7.20;79.40
6948;DHT22;3513;47.664;9.162;2023-04-03T09:21:42;7.20;78.70
6948;DHT22;3513;47.664;9.162;2023-04-03T09:24:13;7.20;78.00
6948;DHT22;3513;47.664;9.162;2023-04-03T09:27:01;7.20;78.40
6948;DHT22;3513;47.664;9.162;2023-04-03T09:29:28;7.20;78.70
6948;DHT22;3513;47.664;9.162;2023-04-03T09:32:00;7.30;79.00
6948;DHT22;3513;47.664;9.162;2023-04-03T09:34:28;7.40;78.70
6948;DHT22;3513;47.664;9.162;2023-04-03T09:36:58;7.40;78.00
6948;DHT22;3513;47.664;9.162;2023-04-03T09:39:27;7.50;78.50
6948;DHT22;3513;47.664;9.162;2023-04-03T09:42:05;7.60;78.40
6948;DHT22;3513;47.664;9.162;2023-04-03T09:44:36;7.70;77.40
6948;DHT22;3513;47.664;9.162;2023-04-03T09:47:34;7.80;76.90
6948;DHT22;3513;47.664;9.162;2023-04-03T09:52:48;7.90;76.20
6948;DHT22;3513;47.664;9.162;2023-04-03T09:55:17;8.10;76.40
6948;DHT22;3513;47.664;9.162;2023-04-03T09:57:45;8.10;75.40
6948;DHT22;3513;47.664;9.162;2023-04-03T10:00:30;8.20;75.80
6948;DHT22;3513;47.664;9.162;2023-04-03T10:02:58;8.40;75.00
6948;DHT22;3513;47.664;9.162;2023-04-03T10:05:34;8.50;74.90
6948;DHT22;3513;47.664;9.162;2023-04-03T10:10:42;8.50;73.70
6948;DHT22;3513;47.664;9.162;2023-04-03T10:15:51;8.40;72.10
6948;DHT22;3513;47.664;9.162;2023-04-03T10:18:38;8.40;73.50
6948;DHT22;3513;47.664;9.162;2023-04-03T10:21:42;8.50;73.40
6948;DHT22;3513;47.664;9.162;2023-04-03T10:29:58;8.70;70.10
6948;DHT22;3513;47.664;9.162;2023-04-03T10:35:25;8.80;70.10
6948;DHT22;3513;47.664;9.162;2023-04-03T10:43:36;8.70;70.00
6948;DHT22;3513;47.664;9.162;2023-04-03T10:46:18;8.90;70.30
6948;DHT22;3513;47.664;9.162;2023-04-03T10:48:49;9.00;70.10
6948;DHT22;3513;47.664;9.162;2023-04-03T10:53:57;9.20;68.50
6948;DHT22;3513;47.664;9.162;2023-04-03T10:56:37;9.20;67.10
6948;DHT22;3513;47.664;9.162;2023-04-03T11:02:00;9.20;66.40
6948;DHT22;3513;47.664;9.162;2023-04-03T11:04:29;9.20;67.10
6948;DHT22;3513;47.664;9.162;2023-04-03T11:07:17;9.30;66.50
6948;DHT22;3513;47.664;9.162;2023-04-03T11:09:48;9.30;66.80
6948;DHT22;3513;47.664;9.162;2023-04-03T11:12:38;9.30;67.10
6948;DHT22;3513;47.664;9.162;2023-04-03T11:15:16;9.40;67.50
6948;DHT22;3513;47.664;9.162;2023-04-03T11:17:51;9.40;66.20
6948;DHT22;3513;47.664;9.162;2023-04-03T11:22:58;9.10;66.10
6948;DHT22;3513;47.664;9.162;2023-04-03T11:25:27;9.30;66.40
6948;DHT22;3513;47.664;9.162;2023-04-03T11:27:56;9.40;65.80
6948;DHT22;3513;47.664;9.162;2023-04-03T11:33:31;9.30;64.90
6948;DHT22;3513;47.664;9.162;2023-04-03T11:36:07;9.20;65.20
6948;DHT22;3513;47.664;9.162;2023-04-03T11:38:36;9.10;65.80
6948;DHT22;3513;47.664;9.162;2023-04-03T11:41:06;9.10;66.10
6948;DHT22;3513;47.664;9.162;2023-04-03T11:43:33;9.00;66.00
6948;DHT22;3513;47.664;9.162;2023-04-03T11:46:01;9.00;65.20
6948;DHT22;3513;47.664;9.162;2023-04-03T11:50:55;9.00;64.70
6948;DHT22;3513;47.664;9.162;2023-04-03T11:53:38;8.90;64.90
6948;DHT22;3513;47.664;9.162;2023-04-03T12:04:13;8.80;64.70
6948;DHT22;3513;47.664;9.162;2023-04-03T12:06:50;8.80;63.70
6948;DHT22;3513;47.664;9.162;2023-04-03T12:12:40;8.90;61.60
6948;DHT22;3513;47.664;9.162;2023-04-03T12:15:21;9.00;62.50
6948;DHT22;3513;47.664;9.162;2023-04-03T12:17:47;9.00;61.70
6948;DHT22;3513;47.664;9.162;2023-04-03T12:23:29;9.00;61.80
6948;DHT22;3513;47.664;9.162;2023-04-03T12:26:18;8.90;62.00
6948;DHT22;3513;47.664;9.162;2023-04-03T12:28:48;8.80;62.50
6948;DHT22;3513;47.664;9.162;2023-04-03T12:31:14;8.80;63.80
6948;DHT22;3513;47.664;9.162;2023-04-03T12:36:59;8.80;63.80
6948;DHT22;3513;47.664;9.162;2023-04-03T12:45:44;8.90;62.20
6948;DHT22;3513;47.664;9.162;2023-04-03T12:48:17;9.00;61.40
6948;DHT22;3513;47.664;9.162;2023-04-03T12:50:46;9.00;60.00
6948;DHT22;3513;47.664;9.162;2023-04-03T12:53:33;8.90;59.10
6948;DHT22;3513;47.664;9.162;2023-04-03T12:56:25;8.80;59.40
6948;DHT22;3513;47.664;9.162;2023-04-03T12:58:53;8.70;59.00
6948;DHT22;3513;47.664;9.162;2023-04-03T13:01:21;8.70;60.10
6948;DHT22;3513;47.664;9.162;2023-04-03T13:03:52;8.80;59.50
6948;DHT22;3513;47.664;9.162;2023-04-03T13:08:54;9.20;59.20
6948;DHT22;3513;47.664;9.162;2023-04-03T13:11:20;8.90;59.10
6948;DHT22;3513;47.664;9.162;2023-04-03T13:13:57;8.80;58.50
6948;DHT22;3513;47.664;9.162;2023-04-03T13:16:22;8.90;58.30
6948;DHT22;3513;47.664;9.162;2023-04-03T13:18:53;8.90;58.30
6948;DHT22;3513;47.664;9.162;2023-04-03T13:21:24;8.90;58.30
6948;DHT22;3513;47.664;9.162;2023-04-03T13:23:54;9.00;58.60
6948;DHT22;3513;47.664;9.162;2023-04-03T13:26:23;9.10;57.80
6948;DHT22;3513;47.664;9.162;2023-04-03T13:28:50;9.20;58.00
6948;DHT22;3513;47.664;9.162;2023-04-03T13:31:20;9.30;58.10
6948;DHT22;3513;47.664;9.162;2023-04-03T13:36:22;9.40;56.80
6948;DHT22;3513;47.664;9.162;2023-04-03T13:39:26;9.40;56.90
6948;DHT22;3513;47.664;9.162;2023-04-03T13:41:52;9.50;56.50
6948;DHT22;3513;47.664;9.162;2023-04-03T13:46:51;9.40;56.90
6948;DHT22;3513;47.664;9.162;2023-04-03T13:49:28;9.50;56.60
6948;DHT22;3513;47.664;9.162;2023-04-03T13:51:54;9.50;56.70
6948;DHT22;3513;47.664;9.162;2023-04-03T13:54:29;9.60;55.00
6948;DHT22;3513;47.664;9.162;2023-04-03T13:56:57;9.60;55.30
6948;DHT22;3513;47.664;9.162;2023-04-03T13:59:34;9.60;54.70
6948;DHT22;3513;47.664;9.162;2023-04-03T14:04:48;9.40;54.50
6948;DHT22;3513;47.664;9.162;2023-04-03T14:07:15;9.40;55.50
6948;DHT22;3513;47.664;9.162;2023-04-03T14:09:42;9.20;56.10
6948;DHT22;3513;47.664;9.162;2023-04-03T14:15:26;9.10;58.20
6948;DHT22;3513;47.664;9.162;2023-04-03T14:17:52;9.20;57.80
6948;DHT22;3513;47.664;9.162;2023-04-03T14:20:21;9.20;57.80
6948;DHT22;3513;47.664;9.162;2023-04-03T14:22:47;9.10;57.70
6948;DHT22;3513;47.664;9.162;2023-04-03T14:25:14;9.10;57.30
6948;DHT22;3513;47.664;9.162;2023-04-03T14:27:43;9.00;56.90
6948;DHT22;3513;47.664;9.162;2023-04-03T14:30:16;8.70;58.10
6948;DHT22;3513;47.664;9.162;2023-04-03T14:32:42;8.80;58.90
6948;DHT22;3513;47.664;9.162;2023-04-03T14:35:08;8.80;58.40
6948;DHT22;3513;47.664;9.162;2023-04-03T14:37:34;8.80;57.80
6948;DHT22;3513;47.664;9.162;2023-04-03T14:40:02;8.80;58.00
6948;DHT22;3513;47.664;9.162;2023-04-03T14:42:32;8.80;57.60
6948;DHT22;3513;47.664;9.162;2023-04-03T14:44:59;8.50;56.10
6948;DHT22;3513;47.664;9.162;2023-04-03T14:47:27;8.30;56.90
6948;DHT22;3513;47.664;9.162;2023-04-03T14:49:53;8.20;57.20
6948;DHT22;3513;47.664;9.162;2023-04-03T14:52:27;8.30;58.00
6948;DHT22;3513;47.664;9.162;2023-04-03T14:54:54;8.20;57.00
6948;DHT22;3513;47.664;9.162;2023-04-03T14:57:23;8.20;58.30
6948;DHT22;3513;47.664;9.162;2023-04-03T14:59:49;8.30;58.40
6948;DHT22;3513;47.664;9.162;2023-04-03T15:02:28;8.30;58.10
6948;DHT22;3513;47.664;9.162;2023-04-03T15:04:55;8.40;59.20
6948;DHT22;3513;47.664;9.162;2023-04-03T15:07:22;8.50;58.30
6948;DHT22;3513;47.664;9.162;2023-04-03T15:09:49;8.50;58.20
6948;DHT22;3513;47.664;9.162;2023-04-03T15:12:15;8.50;57.80
6948;DHT22;3513;47.664;9.162;2023-04-03T15:14:41;8.40;58.60
6948;DHT22;3513;47.664;9.162;2023-04-03T15:17:14;8.50;59.30
6948;DHT22;3513;47.664;9.162;2023-04-03T15:19:40;8.50;58.90
6948;DHT22;3513;47.664;9.162;2023-04-03T15:22:06;8.60;58.40
6948;DHT22;3513;47.664;9.162;2023-04-03T15:24:32;8.60;58.20
6948;DHT22;3513;47.664;9.162;2023-04-03T15:26:58;8.60;58.30
6948;DHT22;3513;47.664;9.162;2023-04-03T15:29:25;8.50;57.10
6948;DHT22;3513;47.664;9.162;2023-04-03T15:31:50;8.50;57.90
6948;DHT22;3513;47.664;9.162;2023-04-03T15:34:18;8.40;57.20
6948;DHT22;3513;47.664;9.162;2023-04-03T15:36:44;8.30;57.10
6948;DHT22;3513;47.664;9.162;2023-04-03T15:39:09;8.20;57.20
6948;DHT22;3513;47.664;9.162;2023-04-03T15:41:35;8.10;57.80
6948;DHT22;3513;47.664;9.162;2023-04-03T15:44:01;8.00;58.40
6948;DHT22;3513;47.664;9.162;2023-04-03T15:46:26;8.00;60.00
6948;DHT22;3513;47.664;9.162;2023-04-03T15:48:52;8.00;59.30
6948;DHT22;3513;47.664;9.162;2023-04-03T15:51:17;7.90;59.20
6948;DHT22;3513;47.664;9.162;2023-04-03T15:53:43;8.00;63.00
6948;DHT22;3513;47.664;9.162;2023-04-03T15:56:09;7.90;63.00
6948;DHT22;3513;47.664;9.162;2023-04-03T15:58:35;7.90;62.60
6948;DHT22;3513;47.664;9.162;2023-04-03T16:01:01;8.00;63.40
6948;DHT22;3513;47.664;9.162;2023-04-03T16:03:27;7.90;61.40
6948;DHT22;3513;47.664;9.162;2023-04-03T16:05:53;7.90;60.80
6948;DHT22;3513;47.664;9.162;2023-04-03T16:08:19;7.80;60.50
6948;DHT22;3513;47.664;9.162;2023-04-03T16:10:44;7.80;59.60
6948;DHT22;3513;47.664;9.162;2023-04-03T16:13:11;7.70;59.80
6948;DHT22;3513;47.664;9.162;2023-04-03T16:15:37;7.60;59.90
6948;DHT22;3513;47.664;9.162;2023-04-03T16:18:04;7.60;60.60
6948;DHT22;3513;47.664;9.162;2023-04-03T16:20:31;7.60;60.60
6948;DHT22;3513;47.664;9.162;2023-04-03T16:22:58;7.50;61.50
6948;DHT22;3513;47.664;9.162;2023-04-03T16:25:25;7.40;61.70
6948;DHT22;3513;47.664;9.162;2023-04-03T16:27:51;7.40;62.30
6948;DHT22;3513;47.664;9.162;2023-04-03T16:30:17;7.30;61.80
6948;DHT22;3513;47.664;9.162;2023-04-03T16:32:43;7.40;64.00
6948;DHT22;3513;47.664;9.162;2023-04-03T16:35:09;7.50;63.10
6948;DHT22;3513;47.664;9.162;2023-04-03T16:37:38;7.50;62.20
6948;DHT22;3513;47.664;9.162;2023-04-03T16:40:06;7.40;62.40
6948;DHT22;3513;47.664;9.162;2023-04-03T16:42:32;7.40;62.40
6948;DHT22;3513;47.664;9.162;2023-04-03T16:44:58;7.30;62.30
6948;DHT22;3513;47.664;9.162;2023-04-03T16:47:25;7.20;61.30
6948;DHT22;3513;47.664;9.162;2023-04-03T16:49:50;7.10;61.80
6948;DHT22;3513;47.664;9.162;2023-04-03T16:52:16;7.10;62.00
6948;DHT22;3513;47.664;9.162;2023-04-03T16:54:42;7.00;61.50
6948;DHT22;3513;47.664;9.162;2023-04-03T16:57:07;6.90;63.20
6948;DHT22;3513;47.664;9.162;2023-04-03T16:59:33;6.90;63.20
6948;DHT22;3513;47.664;9.162;2023-04-03T17:01:58;6.90;62.70
6948;DHT22;3513;47.664;9.162;2023-04-03T17:04:24;6.80;62.90
6948;DHT22;3513;47.664;9.162;2023-04-03T17:06:50;6.80;63.30
6948;DHT22;3513;47.664;9.162;2023-04-03T17:09:17;6.80;63.90
6948;DHT22;3513;47.664;9.162;2023-04-03T17:11:43;6.80;64.00
6948;DHT22;3513;47.664;9.162;2023-04-03T17:14:08;6.80;64.20
6948;DHT22;3513;47.664;9.162;2023-04-03T17:16:35;6.80;64.30
6948;DHT22;3513;47.664;9.162;2023-04-03T17:19:02;6.80;64.90
6948;DHT22;3513;47.664;9.162;2023-04-03T17:21:28;6.70;65.20
6948;DHT22;3513;47.664;9.162;2023-04-03T17:23:57;6.70;65.00
6948;DHT22;3513;47.664;9.162;2023-04-03T17:26:24;6.60;65.20
6948;DHT22;3513;47.664;9.162;2023-04-03T17:28:52;6.50;65.30
6948;DHT22;3513;47.664;9.162;2023-04-03T17:31:18;6.50;64.80
6948;DHT22;3513;47.664;9.162;2023-04-03T17:33:43;6.50;65.00
6948;DHT22;3513;47.664;9.162;2023-04-03T17:36:10;6.40;65.50
6948;DHT22;3513;47.664;9.162;2023-04-03T17:38:36;6.40;65.30
6948;DHT22;3513;47.664;9.162;2023-04-03T17:41:04;6.40;65.60
6948;DHT22;3513;47.664;9.162;2023-04-03T17:43:30;6.30;65.70
6948;DHT22;3513;47.664;9.162;2023-04-03T17:46:01;6.30;66.40
6948;DHT22;3513;47.664;9.162;2023-04-03T17:48:31;6.20;66.20
6948;DHT22;3513;47.664;9.162;2023-04-03T17:50:57;6.20;66.80
6948;DHT22;3513;47.664;9.162;2023-04-03T17:53:23;6.20;66.40